Time;durP1;ratioP1;P1;durP2;ratioP2;P2;SDS_P1;SDS_P2;PMS_P1;PMS_P2;Temp;Humidity;BMP_temperature;BMP_pressure;BME280_temperature;BME280_humidity;BME280_pressure;Samples;Min_cycle;Max_cycle;Signal;HPM_P1;HPM_P2
2023/08/29 00:01:57;;;;;;;10.23;9.63;;;;;;;;;;4962083;28;20125;-73
2023/08/29 00:04:23;;;;;;;10.05;9.35;;;;;;;;;;4992598;28;20517;-74
2023/08/29 00:06:48;;;;;;;10.32;9.45;;;;;;;;;;4987033;28;20746;-73
2023/08/29 00:09:15;;;;;;;11.05;10.30;;;;;;;;;;4986248;28;20068;-73
2023/08/29 00:11:40;;;;;;;10.27;9.50;;;;;;;;;;4978632;28;20665;-74
2023/08/29 00:14:06;;;;;;;10.23;9.52;;;;;;;;;;4985243;28;20030;-74
2023/08/29 00:16:31;;;;;;;11.30;10.18;;;;;;;;;;4989786;28;20049;-73
2023/08/29 00:18:57;;;;;;;10.50;9.80;;;;;;;;;;4991457;28;20061;-73
2023/08/29 00:21:22;;;;;;;10.68;9.98;;;;;;;;;;4988550;28;20126;-73
2023/08/29 00:23:48;;;;;;;11.00;10.13;;;;;;;;;;4984977;28;20041;-73
2023/08/29 00:26:14;;;;;;;10.63;9.93;;;;;;;;;;4955880;28;20069;-73
2023/08/29 00:28:40;;;;;;;10.70;10.00;;;;;;;;;;5004859;28;20042;-73
2023/08/29 00:31:06;;;;;;;10.43;9.80;;;;;;;;;;4983206;28;20066;-73
2023/08/29 00:33:32;;;;;;;10.98;9.77;;;;;;;;;;4988472;28;20054;-74
2023/08/29 00:35:57;;;;;;;9.65;9.05;;;;;;;;;;4991680;28;20612;-74
2023/08/29 00:38:23;;;;;;;10.27;9.48;;;;;;;;;;4994200;28;20034;-73
2023/08/29 00:40:48;;;;;;;10.02;9.30;;;;;;;;;;4991339;28;20696;-74
2023/08/29 00:43:14;;;;;;;10.52;9.82;;;;;;;;;;4989158;28;20042;-74
2023/08/29 00:45:40;;;;;;;10.88;10.10;;;;;;;;;;4978347;28;20035;-74
2023/08/29 00:48:08;;;;;;;10.20;9.60;;;;;;;;;;4982214;28;20041;-73
2023/08/29 00:50:34;;;;;;;10.82;10.13;;;;;;;;;;4972015;28;20085;-73
2023/08/29 00:53:05;;;;;;;10.85;9.85;;;;;;;;;;4988248;28;20452;-73
2023/08/29 00:55:33;;;;;;;11.15;10.30;;;;;;;;;;4988195;28;20034;-73
2023/08/29 00:57:59;;;;;;;10.95;10.15;;;;;;;;;;4988840;28;20038;-73
2023/08/29 01:00:27;;;;;;;10.55;9.85;;;;;;;;;;4987369;28;20437;-74
2023/08/29 01:02:53;;;;;;;10.63;9.95;;;;;;;;;;4971640;28;20530;-73
2023/08/29 01:05:21;;;;;;;10.68;9.77;;;;;;;;;;4988168;28;20092;-73
2023/08/29 01:07:49;;;;;;;10.77;9.90;;;;;;;;;;4992262;28;20038;-73
2023/08/29 01:10:15;;;;;;;10.57;9.88;;;;;;;;;;4987179;28;20077;-73
2023/08/29 01:12:56;;;;;;;10.65;9.95;;;;;;;;;;4991787;28;20050;-74
2023/08/29 01:15:24;;;;;;;11.02;10.32;;;;;;;;;;4987970;28;20736;-73
2023/08/29 01:17:55;;;;;;;10.57;9.83;;;;;;;;;;4988601;28;20520;-73
2023/08/29 01:20:23;;;;;;;10.30;9.60;;;;;;;;;;4989604;28;20033;-73
2023/08/29 01:23:08;;;;;;;10.77;9.93;;;;;;;;;;4985971;28;20030;-74
2023/08/29 01:25:36;;;;;;;10.68;9.88;;;;;;;;;;5003646;28;20050;-73
2023/08/29 01:28:04;;;;;;;10.50;9.73;;;;;;;;;;5018776;28;20049;-73
2023/08/29 01:30:30;;;;;;;10.45;9.80;;;;;;;;;;5000404;28;20030;-74
2023/08/29 01:32:58;;;;;;;11.48;10.57;;;;;;;;;;4987472;28;20065;-73
2023/08/29 01:35:24;;;;;;;11.40;10.30;;;;;;;;;;5002998;28;20041;-73
2023/08/29 01:37:50;;;;;;;10.70;10.00;;;;;;;;;;4990508;28;20038;-73
2023/08/29 01:40:15;;;;;;;10.95;10.15;;;;;;;;;;4995416;28;20028;-73
2023/08/29 01:42:41;;;;;;;10.93;10.13;;;;;;;;;;5002225;28;20457;-73
2023/08/29 01:45:07;;;;;;;11.63;10.52;;;;;;;;;;4971376;28;20799;-73
2023/08/29 01:47:34;;;;;;;10.80;9.90;;;;;;;;;;4988169;28;20042;-73
2023/08/29 01:50:04;;;;;;;11.40;10.50;;;;;;;;;;4988143;28;20034;-73
2023/08/29 01:52:30;;;;;;;11.25;10.30;;;;;;;;;;4986768;28;20042;-73
2023/08/29 01:54:57;;;;;;;11.30;10.35;;;;;;;;;;4986271;28;20086;-74
2023/08/29 01:57:24;;;;;;;11.38;10.40;;;;;;;;;;4970025;28;20030;-74
2023/08/29 01:59:51;;;;;;;10.98;9.98;;;;;;;;;;4988885;28;20038;-73
2023/08/29 02:02:18;;;;;;;11.50;10.57;;;;;;;;;;4985916;28;20045;-74
2023/08/29 02:04:44;;;;;;;11.60;10.70;;;;;;;;;;5007998;28;20038;-74
2023/08/29 02:07:09;;;;;;;11.10;10.30;;;;;;;;;;4978430;28;20045;-73
2023/08/29 02:09:35;;;;;;;10.93;10.02;;;;;;;;;;4989574;28;20085;-73
2023/08/29 02:12:01;;;;;;;11.98;10.85;;;;;;;;;;4970327;28;20494;-74
2023/08/29 02:14:27;;;;;;;11.07;10.18;;;;;;;;;;4988483;28;20092;-74
2023/08/29 02:16:52;;;;;;;11.48;10.35;;;;;;;;;;4986822;28;20049;-73
2023/08/29 02:19:19;;;;;;;10.90;10.10;;;;;;;;;;4969386;28;20514;-74
2023/08/29 02:21:45;;;;;;;10.85;10.15;;;;;;;;;;4986755;28;20061;-74
2023/08/29 02:24:10;;;;;;;11.35;10.45;;;;;;;;;;4989061;28;20057;-74
2023/08/29 02:26:36;;;;;;;11.05;10.25;;;;;;;;;;4985362;28;20042;-74
2023/08/29 02:29:02;;;;;;;10.75;10.05;;;;;;;;;;5002785;28;20517;-73
2023/08/29 02:31:27;;;;;;;11.30;10.50;;;;;;;;;;5001475;28;20468;-74
2023/08/29 02:33:53;;;;;;;13.30;12.10;;;;;;;;;;5003322;28;20108;-74
2023/08/29 02:36:19;;;;;;;11.82;10.85;;;;;;;;;;4996283;28;20073;-74
2023/08/29 02:38:45;;;;;;;12.02;10.73;;;;;;;;;;4988701;28;20045;-74
2023/08/29 02:41:12;;;;;;;11.23;10.30;;;;;;;;;;4981017;28;20108;-73
2023/08/29 02:43:38;;;;;;;10.73;10.02;;;;;;;;;;4985983;28;20122;-74
2023/08/29 02:46:04;;;;;;;14.13;10.63;;;;;;;;;;4986268;28;20054;-74
2023/08/29 02:48:29;;;;;;;11.25;10.27;;;;;;;;;;4986524;28;20081;-74
2023/08/29 02:50:55;;;;;;;11.95;10.95;;;;;;;;;;4988413;28;20066;-74
2023/08/29 02:53:21;;;;;;;11.57;10.65;;;;;;;;;;4985921;28;20045;-74
2023/08/29 02:55:51;;;;;;;11.60;10.57;;;;;;;;;;5000252;28;20042;-73
2023/08/29 02:58:17;;;;;;;11.55;10.65;;;;;;;;;;4967821;28;20517;-74
2023/08/29 03:00:43;;;;;;;11.35;10.43;;;;;;;;;;4982867;28;20043;-74
2023/08/29 03:03:09;;;;;;;11.20;10.30;;;;;;;;;;4996571;28;20621;-74
2023/08/29 03:05:34;;;;;;;11.48;10.50;;;;;;;;;;4992472;28;20127;-74
2023/08/29 03:08:03;;;;;;;11.30;10.27;;;;;;;;;;5004672;28;20122;-74
2023/08/29 03:10:30;;;;;;;11.45;10.65;;;;;;;;;;4993929;28;20047;-74
2023/08/29 03:12:56;;;;;;;12.15;11.05;;;;;;;;;;5001899;28;20034;-74
2023/08/29 03:15:22;;;;;;;11.75;10.95;;;;;;;;;;4987921;28;20030;-73
2023/08/29 03:17:50;;;;;;;11.95;11.13;;;;;;;;;;4988560;28;20030;-74
2023/08/29 03:20:15;;;;;;;11.57;10.77;;;;;;;;;;4984888;28;20045;-73
2023/08/29 03:22:42;;;;;;;11.75;10.95;;;;;;;;;;4976299;28;20033;-74
2023/08/29 03:25:08;;;;;;;11.45;10.63;;;;;;;;;;4997518;28;20034;-73
2023/08/29 03:27:34;;;;;;;12.50;11.27;;;;;;;;;;4985384;28;20042;-73
2023/08/29 03:29:59;;;;;;;11.60;10.70;;;;;;;;;;4985628;28;20038;-73
2023/08/29 03:32:25;;;;;;;11.38;10.48;;;;;;;;;;4985838;28;20405;-74
2023/08/29 03:34:54;;;;;;;12.18;10.88;;;;;;;;;;5000851;28;20136;-74
2023/08/29 03:37:20;;;;;;;;;;;;;;;;;;4968883;28;20041;-74
2023/08/29 03:39:45;;;;;;;12.25;11.35;;;;;;;;;;4983970;28;19917;-74
2023/08/29 03:42:11;;;;;;;11.82;11.02;;;;;;;;;;4985047;28;20299;-73
2023/08/29 03:44:37;;;;;;;12.95;12.02;;;;;;;;;;4985926;28;20077;-74
2023/08/29 03:47:03;;;;;;;12.10;11.20;;;;;;;;;;4982737;28;20039;-74
2023/08/29 03:49:29;;;;;;;11.70;10.77;;;;;;;;;;4984361;28;20133;-74
2023/08/29 03:51:55;;;;;;;12.55;11.43;;;;;;;;;;4984660;28;20118;-73
2023/08/29 03:54:21;;;;;;;12.60;11.70;;;;;;;;;;4983881;28;20042;-74
2023/08/29 03:56:48;;;;;;;12.23;11.20;;;;;;;;;;4987716;28;20041;-73
2023/08/29 03:59:14;;;;;;;13.02;11.85;;;;;;;;;;4987579;28;20033;-73
2023/08/29 04:01:40;;;;;;;12.15;11.27;;;;;;;;;;4984594;28;20026;-73
2023/08/29 04:04:06;;;;;;;13.35;12.25;;;;;;;;;;4965244;28;20585;-73
2023/08/29 04:06:34;;;;;;;13.20;12.20;;;;;;;;;;4966833;28;20034;-74
2023/08/29 04:09:01;;;;;;;13.55;12.45;;;;;;;;;;5001305;28;20521;-73
2023/08/29 04:11:26;;;;;;;14.40;13.10;;;;;;;;;;5008051;28;20050;-73
2023/08/29 04:13:52;;;;;;;14.48;13.27;;;;;;;;;;4969936;28;20054;-74
2023/08/29 04:16:17;;;;;;;13.60;12.60;;;;;;;;;;4981919;28;20046;-73
2023/08/29 04:18:43;;;;;;;14.90;13.60;;;;;;;;;;4987906;28;20042;-74
2023/08/29 04:21:09;;;;;;;14.15;13.15;;;;;;;;;;4983291;28;20442;-74
2023/08/29 04:23:34;;;;;;;14.45;13.20;;;;;;;;;;4968462;28;20050;-74
2023/08/29 04:26:02;;;;;;;15.15;13.50;;;;;;;;;;4982243;28;20418;-74
2023/08/29 04:28:28;;;;;;;14.85;13.65;;;;;;;;;;4997167;28;20327;-74
2023/08/29 04:30:54;;;;;;;18.42;14.52;;;;;;;;;;4986198;28;20038;-74
2023/08/29 04:33:19;;;;;;;15.38;13.95;;;;;;;;;;4985003;28;20045;-74
2023/08/29 04:35:50;;;;;;;14.48;13.38;;;;;;;;;;4983085;28;20060;-74
2023/08/29 04:38:15;;;;;;;15.20;13.57;;;;;;;;;;4983469;28;20065;-74
2023/08/29 04:40:41;;;;;;;14.85;13.65;;;;;;;;;;4986023;28;20638;-74
2023/08/29 04:43:06;;;;;;;15.10;13.77;;;;;;;;;;4967903;28;20030;-74
2023/08/29 04:45:33;;;;;;;16.25;14.63;;;;;;;;;;4982380;28;20038;-74
2023/08/29 04:47:58;;;;;;;15.20;13.77;;;;;;;;;;4966299;28;20034;-74
2023/08/29 04:50:26;;;;;;;15.45;14.25;;;;;;;;;;4983083;28;20462;-74
2023/08/29 04:52:53;;;;;;;16.25;14.73;;;;;;;;;;4992338;28;20038;-74
2023/08/29 04:55:19;;;;;;;13.82;12.73;;;;;;;;;;4984359;28;20518;-74
2023/08/29 04:57:45;;;;;;;15.90;14.13;;;;;;;;;;4985978;28;20550;-74
2023/08/29 05:00:12;;;;;;;15.20;13.88;;;;;;;;;;4983509;28;20065;-74
2023/08/29 05:02:39;;;;;;;15.85;14.32;;;;;;;;;;4988558;28;20130;-74
2023/08/29 05:05:06;;;;;;;16.02;14.73;;;;;;;;;;4987597;28;20058;-74
2023/08/29 05:07:32;;;;;;;18.05;16.48;;;;;;;;;;4989021;28;20042;-75
2023/08/29 05:09:58;;;;;;;18.58;16.65;;;;;;;;;;4985027;28;20494;-74
2023/08/29 05:12:25;;;;;;;18.45;16.83;;;;;;;;;;4974113;28;20042;-75
2023/08/29 05:14:54;;;;;;;17.67;16.17;;;;;;;;;;4987479;28;20092;-74
2023/08/29 05:17:19;;;;;;;19.17;17.58;;;;;;;;;;5004122;28;20041;-74
2023/08/29 05:19:46;;;;;;;19.85;18.23;;;;;;;;;;5002941;28;20038;-74
2023/08/29 05:22:11;;;;;;;21.08;18.50;;;;;;;;;;5007343;28;20034;-74
2023/08/29 05:24:37;;;;;;;20.25;18.50;;;;;;;;;;5004895;28;20034;-74
2023/08/29 05:27:03;;;;;;;20.15;17.95;;;;;;;;;;4991032;28;21031;-74
2023/08/29 05:29:29;;;;;;;22.17;20.02;;;;;;;;;;5003826;28;20182;-74
2023/08/29 05:31:54;;;;;;;22.08;19.83;;;;;;;;;;5015500;28;20056;-74
2023/08/29 05:34:20;;;;;;;20.60;18.77;;;;;;;;;;5008807;28;20026;-74
2023/08/29 05:36:48;;;;;;;21.92;19.83;;;;;;;;;;4990171;28;20046;-74
2023/08/29 05:39:14;;;;;;;22.90;20.63;;;;;;;;;;4969497;28;20133;-74
2023/08/29 05:41:39;;;;;;;23.02;20.88;;;;;;;;;;4990871;28;20133;-74
2023/08/29 05:44:05;;;;;;;23.33;20.42;;;;;;;;;;5007738;28;20037;-74
2023/08/29 05:46:31;;;;;;;22.08;19.98;;;;;;;;;;5004125;28;20645;-74
2023/08/29 05:48:59;;;;;;;23.70;21.35;;;;;;;;;;5000961;28;20034;-74
2023/08/29 05:51:24;;;;;;;23.60;21.30;;;;;;;;;;4987605;28;20065;-74
2023/08/29 05:53:50;;;;;;;23.30;20.98;;;;;;;;;;4987027;28;20026;-74
2023/08/29 05:56:16;;;;;;;23.85;21.65;;;;;;;;;;4986287;28;20034;-75
2023/08/29 05:58:41;;;;;;;23.13;20.77;;;;;;;;;;4988965;28;20026;-74
2023/08/29 06:01:07;;;;;;;24.70;22.38;;;;;;;;;;4988734;28;20490;-75
2023/08/29 06:03:34;;;;;;;23.50;21.35;;;;;;;;;;4987734;28;20080;-75
2023/08/29 06:05:59;;;;;;;25.77;22.92;;;;;;;;;;4988248;28;20046;-75
2023/08/29 06:08:25;;;;;;;22.98;20.90;;;;;;;;;;4989402;28;20216;-74
2023/08/29 06:10:51;;;;;;;25.60;23.00;;;;;;;;;;4986007;28;20065;-75
2023/08/29 06:13:16;;;;;;;25.52;22.70;;;;;;;;;;4987380;28;20125;-75
2023/08/29 06:15:42;;;;;;;26.95;24.08;;;;;;;;;;4988353;28;20480;-75
2023/08/29 06:18:08;;;;;;;30.45;24.58;;;;;;;;;;5002786;28;20058;-75
2023/08/29 06:20:34;;;;;;;26.85;23.60;;;;;;;;;;4988422;28;20065;-75
2023/08/29 06:22:59;;;;;;;25.27;22.77;;;;;;;;;;4987477;28;20517;-75
2023/08/29 06:25:25;;;;;;;27.80;23.00;;;;;;;;;;4970519;28;20046;-75
2023/08/29 06:27:51;;;;;;;27.45;24.83;;;;;;;;;;4988300;28;20105;-75
2023/08/29 06:30:16;;;;;;;27.27;24.38;;;;;;;;;;4987391;28;20045;-76
2023/08/29 06:32:42;;;;;;;26.63;24.08;;;;;;;;;;4985720;28;20030;-75
2023/08/29 06:35:09;;;;;;;26.50;23.50;;;;;;;;;;4986176;28;20050;-75
2023/08/29 06:37:36;;;;;;;31.33;25.63;;;;;;;;;;5002347;28;20041;-75
2023/08/29 06:40:04;;;;;;;26.98;24.15;;;;;;;;;;4975424;28;20070;-75
2023/08/29 06:42:31;;;;;;;28.23;25.42;;;;;;;;;;4985838;28;20032;-75
2023/08/29 06:44:58;;;;;;;27.73;24.73;;;;;;;;;;4983099;28;20494;-75
2023/08/29 06:47:24;;;;;;;30.67;25.00;;;;;;;;;;4983340;28;20701;-75
2023/08/29 06:49:52;;;;;;;26.10;23.48;;;;;;;;;;4985989;28;20322;-75
2023/08/29 06:52:18;;;;;;;29.38;26.25;;;;;;;;;;4986291;28;20034;-76
2023/08/29 06:54:45;;;;;;;28.17;25.08;;;;;;;;;;4985592;28;20083;-75
2023/08/29 06:57:10;;;;;;;29.67;25.08;;;;;;;;;;4985807;28;20050;-75
2023/08/29 06:59:36;;;;;;;29.23;25.42;;;;;;;;;;4967993;28;20050;-75
2023/08/29 07:02:01;;;;;;;28.88;25.88;;;;;;;;;;4986956;28;20464;-75
2023/08/29 07:04:27;;;;;;;29.23;25.90;;;;;;;;;;4987530;28;20027;-75
2023/08/29 07:06:52;;;;;;;28.80;25.63;;;;;;;;;;4985998;28;20046;-75
2023/08/29 07:09:18;;;;;;;33.47;26.70;;;;;;;;;;4987470;28;20034;-75
2023/08/29 07:11:44;;;;;;;28.02;24.80;;;;;;;;;;4987725;28;20038;-76
2023/08/29 07:14:09;;;;;;;31.60;27.55;;;;;;;;;;4986696;28;20406;-75
2023/08/29 07:16:35;;;;;;;30.48;26.13;;;;;;;;;;4984127;28;20088;-75
2023/08/29 07:19:00;;;;;;;30.40;24.27;;;;;;;;;;4984475;28;20270;-75
2023/08/29 07:21:27;;;;;;;26.95;24.17;;;;;;;;;;4986278;28;20074;-75
2023/08/29 07:23:54;;;;;;;28.63;24.88;;;;;;;;;;4994954;28;20349;-75
2023/08/29 07:26:20;;;;;;;27.48;24.63;;;;;;;;;;4986048;28;20057;-75
2023/08/29 07:28:45;;;;;;;34.45;26.33;;;;;;;;;;4985113;28;20410;-75
2023/08/29 07:31:11;;;;;;;27.20;24.35;;;;;;;;;;4988367;28;20038;-75
2023/08/29 07:33:37;;;;;;;28.15;25.17;;;;;;;;;;4986784;28;20049;-75
2023/08/29 07:36:04;;;;;;;27.42;24.65;;;;;;;;;;4984673;28;20038;-75
2023/08/29 07:38:31;;;;;;;28.10;24.80;;;;;;;;;;4983827;28;20043;-75
2023/08/29 07:41:00;;;;;;;30.25;27.08;;;;;;;;;;4986439;28;20337;-76
2023/08/29 07:43:25;;;;;;;33.83;27.10;;;;;;;;;;4983443;28;20042;-75
2023/08/29 07:45:53;;;;;;;29.30;26.08;;;;;;;;;;4985141;28;20038;-76
2023/08/29 07:48:20;;;;;;;30.52;25.02;;;;;;;;;;4987589;28;20164;-76
2023/08/29 07:50:46;;;;;;;29.00;25.95;;;;;;;;;;4982395;28;20030;-76
2023/08/29 07:53:13;;;;;;;29.40;26.35;;;;;;;;;;4985705;28;20033;-76
2023/08/29 07:55:43;;;;;;;32.83;27.23;;;;;;;;;;4985802;28;20046;-76
2023/08/29 07:58:09;;;;;;;31.70;26.75;;;;;;;;;;4988318;28;20394;-76
2023/08/29 08:00:36;;;;;;;30.25;25.45;;;;;;;;;;5001283;28;20490;-76
2023/08/29 08:03:03;;;;;;;28.17;25.27;;;;;;;;;;4989240;28;20034;-76
2023/08/29 08:05:30;;;;;;;31.30;26.58;;;;;;;;;;5002160;28;20124;-77
2023/08/29 08:08:00;;;;;;;31.48;26.85;;;;;;;;;;4983938;28;20485;-77
2023/08/29 08:10:27;;;;;;;30.80;27.42;;;;;;;;;;4991044;28;20043;-76
2023/08/29 08:12:54;;;;;;;27.48;24.00;;;;;;;;;;4999886;28;20042;-76
2023/08/29 08:15:21;;;;;;;27.90;25.05;;;;;;;;;;4984542;28;20034;-75
2023/08/29 08:17:49;;;;;;;29.02;25.95;;;;;;;;;;5001819;28;20041;-75
2023/08/29 08:20:16;;;;;;;29.02;25.25;;;;;;;;;;4987195;28;20161;-76
2023/08/29 08:22:43;;;;;;;28.02;25.13;;;;;;;;;;4984419;28;20132;-76
2023/08/29 08:25:10;;;;;;;27.48;24.58;;;;;;;;;;4985622;28;20125;-76
2023/08/29 08:27:40;;;;;;;28.60;25.58;;;;;;;;;;4968802;28;20046;-76
2023/08/29 08:30:08;;;;;;;28.25;25.48;;;;;;;;;;4973968;28;20039;-76
2023/08/29 08:32:35;;;;;;;29.80;25.63;;;;;;;;;;4985755;28;20031;-77
2023/08/29 08:35:05;;;;;;;27.58;24.85;;;;;;;;;;4985712;28;20038;-76
2023/08/29 08:37:35;;;;;;;27.30;24.40;;;;;;;;;;4991153;28;20521;-76
2023/08/29 08:40:11;;;;;;;28.17;25.42;;;;;;;;;;4987198;28;20518;-76
2023/08/29 08:42:44;;;;;;;27.83;25.10;;;;;;;;;;5008961;28;20497;-75
2023/08/29 08:45:11;;;;;;;31.00;27.25;;;;;;;;;;4988966;28;20023;-76
2023/08/29 08:47:38;;;;;;;28.58;24.42;;;;;;;;;;4992204;28;20038;-76
2023/08/29 08:50:04;;;;;;;28.05;25.30;;;;;;;;;;4987163;28;20553;-76
2023/08/29 08:52:36;;;;;;;28.58;25.83;;;;;;;;;;4988603;28;20042;-76
2023/08/29 08:55:02;;;;;;;26.52;24.00;;;;;;;;;;4982113;28;20026;-76
2023/08/29 08:57:28;;;;;;;26.60;23.95;;;;;;;;;;4986251;28;20094;-75
2023/08/29 08:59:54;;;;;;;28.50;25.58;;;;;;;;;;5003989;28;20030;-75
2023/08/29 09:02:20;;;;;;;27.45;24.85;;;;;;;;;;4987852;28;20102;-74
2023/08/29 09:04:46;;;;;;;25.15;22.65;;;;;;;;;;4988610;28;20026;-75
2023/08/29 09:07:11;;;;;;;26.30;23.75;;;;;;;;;;4988461;28;20068;-75
2023/08/29 09:09:37;;;;;;;26.02;23.52;;;;;;;;;;4989066;28;20049;-75
2023/08/29 09:12:03;;;;;;;25.70;23.08;;;;;;;;;;4986550;28;20426;-75
2023/08/29 09:14:30;;;;;;;26.25;23.70;;;;;;;;;;4981095;28;20050;-75
2023/08/29 09:16:57;;;;;;;24.70;22.50;;;;;;;;;;4988842;28;20039;-75
2023/08/29 09:19:24;;;;;;;24.17;21.88;;;;;;;;;;4983168;28;20051;-75
2023/08/29 09:21:50;;;;;;;25.35;23.00;;;;;;;;;;4983254;28;20049;-75
2023/08/29 09:24:32;;;;;;;24.05;21.73;;;;;;;;;;4988083;28;20030;-75
2023/08/29 09:26:58;;;;;;;25.33;23.02;;;;;;;;;;4984200;28;20042;-75
2023/08/29 09:29:24;;;;;;;23.80;21.80;;;;;;;;;;4986702;28;20070;-75
2023/08/29 09:31:50;;;;;;;23.77;21.58;;;;;;;;;;4988239;28;20038;-75
2023/08/29 09:34:42;;;;;;;24.90;22.60;;;;;;;;;;4988130;28;20475;-75
2023/08/29 09:37:11;;;;;;;24.63;22.35;;;;;;;;;;5000546;28;20629;-75
2023/08/29 09:39:37;;;;;;;24.77;22.40;;;;;;;;;;4989049;28;20221;-74
2023/08/29 09:42:03;;;;;;;26.83;24.52;;;;;;;;;;4989598;28;20058;-75
2023/08/29 09:44:33;;;;;;;24.85;22.80;;;;;;;;;;4987631;28;20038;-74
2023/08/29 09:46:59;;;;;;;23.35;21.23;;;;;;;;;;4989094;28;20600;-75
2023/08/29 09:49:31;;;;;;;24.92;22.73;;;;;;;;;;4988847;28;20113;-75
2023/08/29 09:52:01;;;;;;;25.08;22.65;;;;;;;;;;4989507;28;20546;-75
2023/08/29 09:54:29;;;;;;;22.15;20.05;;;;;;;;;;4985123;28;20041;-75
2023/08/29 09:56:58;;;;;;;23.20;21.17;;;;;;;;;;4987991;28;20030;-75
2023/08/29 09:59:24;;;;;;;22.83;20.92;;;;;;;;;;4987678;28;20069;-76
2023/08/29 10:01:51;;;;;;;20.13;18.15;;;;;;;;;;4989051;28;20042;-75
2023/08/29 10:04:20;;;;;;;20.92;19.23;;;;;;;;;;4985152;28;20050;-75
2023/08/29 10:06:49;;;;;;;21.50;19.65;;;;;;;;;;4988977;28;20042;-75
2023/08/29 10:09:15;;;;;;;22.85;20.88;;;;;;;;;;4987453;28;20030;-76
2023/08/29 10:11:43;;;;;;;23.38;21.30;;;;;;;;;;4988104;28;20064;-76
2023/08/29 10:14:09;;;;;;;23.88;21.85;;;;;;;;;;4968967;28;20022;-76
2023/08/29 10:16:36;;;;;;;24.98;22.70;;;;;;;;;;4987000;28;20444;-75
2023/08/29 10:19:01;;;;;;;25.00;22.60;;;;;;;;;;5002504;28;20034;-75
2023/08/29 10:21:28;;;;;;;25.67;23.48;;;;;;;;;;4960260;28;20088;-75
2023/08/29 10:23:54;;;;;;;25.65;23.40;;;;;;;;;;5002513;28;20125;-75
2023/08/29 10:26:20;;;;;;;26.00;23.50;;;;;;;;;;4988115;28;20137;-75
2023/08/29 10:28:47;;;;;;;26.08;23.42;;;;;;;;;;4986977;28;20046;-75
2023/08/29 10:31:15;;;;;;;28.13;25.52;;;;;;;;;;4989022;28;20061;-75
2023/08/29 10:33:41;;;;;;;28.48;25.75;;;;;;;;;;4986541;28;20173;-75
2023/08/29 10:36:10;;;;;;;27.90;25.20;;;;;;;;;;4987225;28;20061;-74
2023/08/29 10:38:40;;;;;;;25.90;23.30;;;;;;;;;;4973629;28;20064;-75
2023/08/29 10:41:09;;;;;;;26.25;23.60;;;;;;;;;;4987310;28;20038;-75
2023/08/29 10:43:35;;;;;;;27.05;24.55;;;;;;;;;;4983539;28;20061;-75
2023/08/29 10:46:15;;;;;;;25.25;22.80;;;;;;;;;;4987312;28;20046;-75
2023/08/29 10:48:43;;;;;;;26.52;23.88;;;;;;;;;;4986190;28;20045;-75
2023/08/29 10:51:14;;;;;;;27.58;24.98;;;;;;;;;;4986619;28;20061;-75
2023/08/29 10:53:43;;;;;;;26.33;23.92;;;;;;;;;;4992246;28;20041;-75
2023/08/29 10:56:09;;;;;;;24.70;22.50;;;;;;;;;;4985050;28;20042;-75
2023/08/29 10:58:42;;;;;;;26.27;23.77;;;;;;;;;;4986540;28;20096;-75
2023/08/29 11:01:36;;;;;;;25.17;22.98;;;;;;;;;;4987667;28;20038;-75
2023/08/29 11:04:11;;;;;;;25.77;23.35;;;;;;;;;;4969271;28;20027;-75
2023/08/29 11:06:50;;;;;;;22.73;20.58;;;;;;;;;;4988245;28;20042;-76
2023/08/29 11:09:20;;;;;;;25.45;23.15;;;;;;;;;;4988735;28;20034;-74
2023/08/29 11:12:08;;;;;;;25.02;22.83;;;;;;;;;;4999939;28;20034;-74
2023/08/29 11:14:50;;;;;;;25.83;23.30;;;;;;;;;;4985989;28;20038;-74
2023/08/29 11:17:22;;;;;;;24.73;22.63;;;;;;;;;;4987908;28;20104;-75
2023/08/29 11:20:01;;;;;;;24.73;22.73;;;;;;;;;;4986228;28;20046;-75
2023/08/29 11:22:29;;;;;;;24.42;22.23;;;;;;;;;;4984265;28;20052;-75
2023/08/29 11:24:55;;;;;;;23.05;21.02;;;;;;;;;;4986544;28;20309;-75
2023/08/29 11:27:31;;;;;;;23.48;21.38;;;;;;;;;;4988206;28;20037;-75
2023/08/29 11:30:00;;;;;;;23.58;21.50;;;;;;;;;;4968902;28;20497;-75
2023/08/29 11:32:28;;;;;;;26.70;24.15;;;;;;;;;;4985612;28;20049;-75
2023/08/29 11:34:54;;;;;;;28.30;25.45;;;;;;;;;;4985181;28;20038;-75
2023/08/29 11:37:23;;;;;;;28.17;25.77;;;;;;;;;;4985682;28;20349;-75
2023/08/29 11:39:56;;;;;;;26.85;24.58;;;;;;;;;;4986152;28;20502;-74
2023/08/29 11:42:22;;;;;;;28.02;25.58;;;;;;;;;;4986957;28;20041;-75
2023/08/29 11:44:48;;;;;;;27.23;24.83;;;;;;;;;;4986837;28;20038;-75
2023/08/29 11:47:15;;;;;;;26.75;24.55;;;;;;;;;;4985273;28;20468;-75
2023/08/29 11:49:46;;;;;;;22.50;20.67;;;;;;;;;;4985730;28;20121;-75
2023/08/29 11:52:12;;;;;;;24.17;22.08;;;;;;;;;;4994878;28;20065;-75
2023/08/29 11:54:45;;;;;;;27.58;25.08;;;;;;;;;;4983678;28;20030;-76
2023/08/29 11:57:12;;;;;;;23.85;21.75;;;;;;;;;;4965746;28;20146;-75
2023/08/29 11:59:45;;;;;;;25.35;23.10;;;;;;;;;;4980331;28;20038;-76
2023/08/29 12:02:16;;;;;;;25.17;22.67;;;;;;;;;;4981805;28;20078;-75
2023/08/29 12:04:43;;;;;;;26.02;23.85;;;;;;;;;;4996891;28;20031;-75
2023/08/29 12:07:13;;;;;;;28.10;25.45;;;;;;;;;;4981197;28;20045;-75
2023/08/29 12:09:42;;;;;;;27.52;25.02;;;;;;;;;;4983425;28;20042;-76
2023/08/29 12:12:09;;;;;;;27.42;25.00;;;;;;;;;;4986188;28;20607;-76
2023/08/29 12:14:50;;;;;;;25.67;23.48;;;;;;;;;;4982805;28;20042;-76
2023/08/29 12:17:18;;;;;;;19.17;17.67;;;;;;;;;;4977763;28;20381;-75
2023/08/29 12:19:44;;;;;;;21.70;19.90;;;;;;;;;;4985099;28;20393;-75
2023/08/29 12:22:10;;;;;;;19.83;18.13;;;;;;;;;;4991881;28;20045;-75
2023/08/29 12:24:36;;;;;;;20.83;19.17;;;;;;;;;;4986410;28;20031;-75
2023/08/29 12:27:01;;;;;;;21.13;19.40;;;;;;;;;;4968254;28;20495;-75
2023/08/29 12:29:27;;;;;;;19.02;17.52;;;;;;;;;;4998945;28;20494;-75
2023/08/29 12:31:53;;;;;;;20.00;18.30;;;;;;;;;;4986893;28;20050;-75
2023/08/29 12:34:19;;;;;;;19.67;18.13;;;;;;;;;;4989640;28;20345;-75
2023/08/29 12:36:44;;;;;;;19.33;17.73;;;;;;;;;;4987368;28;20038;-75
2023/08/29 12:39:11;;;;;;;19.55;17.73;;;;;;;;;;4981292;28;20038;-75
2023/08/29 12:41:36;;;;;;;21.23;19.33;;;;;;;;;;4986834;28;20300;-75
2023/08/29 12:44:03;;;;;;;22.40;20.42;;;;;;;;;;4987894;28;20087;-75
2023/08/29 12:46:30;;;;;;;21.15;19.45;;;;;;;;;;4987652;28;20128;-74
2023/08/29 12:48:56;;;;;;;21.63;19.83;;;;;;;;;;4987041;28;20582;-75
2023/08/29 12:51:22;;;;;;;21.00;19.30;;;;;;;;;;4986635;28;20406;-74
2023/08/29 12:53:49;;;;;;;19.13;17.38;;;;;;;;;;4988976;28;20034;-74
2023/08/29 12:56:15;;;;;;;20.30;18.70;;;;;;;;;;4986559;28;20046;-74
2023/08/29 12:58:42;;;;;;;20.27;18.63;;;;;;;;;;4988644;28;20042;-74
2023/08/29 13:01:08;;;;;;;20.88;19.15;;;;;;;;;;4989063;28;20680;-74
2023/08/29 13:03:33;;;;;;;21.20;19.48;;;;;;;;;;4987068;28;20034;-72
2023/08/29 13:05:59;;;;;;;22.73;20.83;;;;;;;;;;4987567;28;20509;-72
2023/08/29 13:08:25;;;;;;;24.25;21.98;;;;;;;;;;4986999;28;20390;-73
2023/08/29 13:10:50;;;;;;;24.00;21.90;;;;;;;;;;4988249;28;20139;-72
2023/08/29 13:13:16;;;;;;;23.65;21.70;;;;;;;;;;4971197;28;20138;-72
2023/08/29 13:15:42;;;;;;;23.27;21.38;;;;;;;;;;4991209;28;20454;-71
2023/08/29 13:18:07;;;;;;;23.58;21.55;;;;;;;;;;4993863;28;20038;-72
2023/08/29 13:20:33;;;;;;;19.33;17.65;;;;;;;;;;4991887;28;20097;-72
2023/08/29 13:23:00;;;;;;;19.98;18.48;;;;;;;;;;4987329;28;20081;-72
2023/08/29 13:25:28;;;;;;;18.70;17.27;;;;;;;;;;4988058;28;20101;-75
2023/08/29 13:27:55;;;;;;;21.30;19.40;;;;;;;;;;4988281;28;20088;-75
2023/08/29 13:30:21;;;;;;;20.60;18.90;;;;;;;;;;4986382;28;20121;-75
2023/08/29 13:32:48;;;;;;;20.25;18.65;;;;;;;;;;4988747;28;20034;-75
2023/08/29 13:35:14;;;;;;;19.60;18.00;;;;;;;;;;4991175;28;20410;-74
2023/08/29 13:37:40;;;;;;;19.85;18.00;;;;;;;;;;4993964;28;20046;-74
2023/08/29 13:40:08;;;;;;;18.83;17.33;;;;;;;;;;4986457;28;20045;-74
2023/08/29 13:42:34;;;;;;;19.50;17.95;;;;;;;;;;4987594;28;20045;-75
2023/08/29 13:45:01;;;;;;;18.73;17.23;;;;;;;;;;4967668;28;20068;-74
2023/08/29 13:47:27;;;;;;;18.35;16.65;;;;;;;;;;5002280;28;20612;-75
2023/08/29 13:49:52;;;;;;;18.77;17.00;;;;;;;;;;4988490;28;20046;-75
2023/08/29 13:52:21;;;;;;;17.33;16.00;;;;;;;;;;4986983;28;20050;-72
2023/08/29 13:54:47;;;;;;;17.05;15.75;;;;;;;;;;5001546;28;20586;-72
2023/08/29 13:57:13;;;;;;;17.05;15.73;;;;;;;;;;4997994;28;20387;-72
2023/08/29 13:59:39;;;;;;;17.33;15.90;;;;;;;;;;4986604;28;20034;-72
2023/08/29 14:02:07;;;;;;;16.80;15.30;;;;;;;;;;4987810;28;20042;-72
2023/08/29 14:04:33;;;;;;;16.63;15.32;;;;;;;;;;4987007;28;20064;-72
2023/08/29 14:06:58;;;;;;;17.40;16.10;;;;;;;;;;4986820;28;20393;-72
2023/08/29 14:09:24;;;;;;;17.95;16.55;;;;;;;;;;4985347;28;20435;-72
2023/08/29 14:11:49;;;;;;;16.73;15.35;;;;;;;;;;4990204;28;20168;-72
2023/08/29 14:14:16;;;;;;;16.17;14.98;;;;;;;;;;4997275;28;20026;-72
2023/08/29 14:16:42;;;;;;;16.55;15.32;;;;;;;;;;4981200;28;20046;-71
2023/08/29 14:19:08;;;;;;;16.95;15.73;;;;;;;;;;4982284;28;20041;-71